Flight Track Log - Related Links

Times and Time Zones

All times are in EDT time to prevent confusion due to time zone crossing. See the UAL395 flight status page for this flight to view local times or setup timezone preferences in your user account.

Time Position Orientation Groundspeed Altitude Reporting Facility
EDT Latitude Longitude Course Direction KTS MPH feet Rate Location/Type
Wed 07:17:27 PM 42.0000 -87.9333 261° West 165 190 1,800  Level Chicago TRACON
Wed 07:18:27 PM 42.0500 -87.9833 323° Northwest 217 250 3,100 1,949 Climbing Chicago TRACON
Wed 07:20:00 PM 41.9304 -88.3483 255° West  Level FlightAware Approximate
Wed 07:20:04 PM 42.1300 -88.0531 327° Northwest 247 284 6,900  Level Chicago Center
Wed 07:21:00 PM 41.9130 -88.4981 261° West  Level FlightAware Approximate
Wed 07:21:06 PM 42.1419 -88.1528 279° West 272 313 9,500  Level Chicago Center
Wed 07:22:00 PM 41.8953 -88.6488 261° West  Level FlightAware Approximate
Wed 07:22:08 PM 42.1097 -88.2728 250° West 288 331 12,000  Level Chicago Center
Wed 07:23:10 PM 42.0772 -88.3717 246° West 293 337 14,300 1,548 Climbing Chicago Center
Wed 07:24:12 PM 42.0306 -88.4717 238° Southwest 325 374 15,200 919 Climbing Chicago Center
Wed 07:25:14 PM 41.9647 -88.5811 231° Southwest 372 428 16,200 1,258 Climbing Chicago Center
Wed 07:26:16 PM 41.8961 -88.6950 231° Southwest 394 453 17,800 1,694 Climbing Chicago Center
Wed 07:27:18 PM 41.8150 -88.8394 233° Southwest 408 470 19,700 1,645 Climbing Chicago Center
Wed 07:28:20 PM 41.7817 -88.9858 253° West 416 479 21,200 1,403 Climbing Chicago Center
Wed 07:29:22 PM 41.7475 -89.1342 253° West 422 486 22,600 1,296 Climbing Chicago Center
Wed 07:30:25 PM 41.7122 -89.2839 253° West 426 490 23,900 1,248 Climbing Chicago Center
Wed 07:31:27 PM 41.6711 -89.4686 253° West 432 497 25,200 1,113 Climbing Chicago Center
Wed 07:32:29 PM 41.6381 -89.6139 253° West 440 506 26,200 919 Climbing Chicago Center
Wed 07:33:31 PM 41.6019 -89.7719 253° West 445 512 27,100 1,597 Climbing Chicago Center
Wed 07:34:33 PM 41.5708 -89.9297 255° West 443 510 29,500 1,355 Climbing Chicago Center
Wed 07:35:35 PM 41.5389 -90.1125 257° West 428 493 29,900 629 Climbing Chicago Center
Wed 07:36:37 PM 41.5086 -90.2719 256° West 440 506 30,800 1,016 Climbing Chicago Center
Wed 07:37:39 PM 41.4786 -90.4314 256° West 444 511 32,000 1,258 Climbing Chicago Center
Wed 07:38:41 PM 41.4511 -90.5844 257° West 434 499 33,400 968 Climbing Chicago Center
Wed 07:39:43 PM 41.4194 -90.7381 255° West 432 497 34,000 288 Climbing Chicago Center
Wed 07:40:46 PM 41.3917 -90.8864 256° West 418 481 34,000  Level Chicago Center
Wed 07:41:48 PM 41.3558 -91.0661 255° West 421 484 34,000  Level Chicago Center
Wed 07:42:50 PM 41.3272 -91.2153 256° West 420 483 34,000  Level Chicago Center
Wed 07:43:52 PM 41.2969 -91.3694 255° West 421 484 34,000 194 Level Chicago Center
Wed 07:44:54 PM 41.2667 -91.5211 255° West 424 488 34,400 532 Climbing Chicago Center
Wed 07:45:56 PM 41.2325 -91.6889 255° West 424 488 35,100 677 Climbing Chicago Center
Wed 07:46:58 PM 41.2028 -91.8386 255° West 423 487 35,800 435 Climbing Chicago Center
Wed 07:48:00 PM 41.1728 -91.9872 255° West 423 487 36,000 97 Climbing Chicago Center
Wed 07:49:02 PM 41.1411 -92.1369 254° West 425 489 36,000  Level Chicago Center
Wed 07:50:04 PM 41.1053 -92.3139 255° West 422 486 36,000  Level Chicago Center
Wed 07:51:07 PM 41.0744 -92.4628 255° West 423 487 36,000  Level Chicago Center
Wed 07:52:09 PM 41.0433 -92.6114 255° West 424 488 36,000  Level Chicago Center
Wed 07:53:11 PM 41.0111 -92.7617 254° West 428 493 36,000  Level Chicago Center
Wed 07:54:13 PM 40.9742 -92.9411 255° West 428 493 36,000  Level Chicago Center
Wed 07:55:15 PM 40.9422 -93.0906 254° West 427 491 36,000  Level Chicago Center
Wed 07:56:17 PM 40.9086 -93.2389 253° West 428 493 36,000  Level Chicago Center
Wed 07:57:19 PM 40.8775 -93.3878 255° West 426 490 36,000  Level Chicago Center
Wed 07:58:21 PM 40.8444 -93.5353 254° West 424 488 36,000  Level Chicago Center
Wed 07:59:23 PM 40.8047 -93.7147 254° West 428 493 36,000  Level Chicago Center
Wed 08:00:25 PM 40.7714 -93.8625 253° West 424 488 36,000  Level Chicago Center
Wed 08:01:27 PM 40.7386 -94.0094 254° West 422 486 36,000  Level Chicago Center
Wed 08:02:29 PM 40.7069 -94.1567 254° West 421 484 36,000  Level Chicago Center
Wed 08:03:31 PM 40.6664 -94.3308 253° West 419 482 36,000  Level Chicago Center
Wed 08:04:51 PM 40.6242 -94.5061 252° West 421 484 36,000  Level Minneapolis Center
Wed 08:05:53 PM 40.5894 -94.6606 254° West 418 481 36,000  Level Minneapolis Center
Wed 08:06:55 PM 40.5556 -94.8078 253° West 418 481 36,000  Level Minneapolis Center
Wed 08:07:57 PM 40.5217 -94.9528 253° West 416 479 36,000  Level Minneapolis Center
Wed 08:08:59 PM 40.4811 -95.1278 253° West 416 479 36,000  Level Minneapolis Center
Wed 08:10:01 PM 40.4469 -95.2744 253° West 417 480 36,000  Level Minneapolis Center
Wed 08:11:03 PM 40.4114 -95.4208 252° West 419 482 36,000  Level Minneapolis Center
Wed 08:12:05 PM 40.3761 -95.5692 253° West 422 486 36,000  Level Minneapolis Center
Wed 08:13:20 PM 40.3408 -95.7172 253° West 424 488 36,000  Level Minneapolis Center
Wed 08:14:22 PM 40.2986 -95.8931 253° West 421 484 36,000  Level Minneapolis Center
Wed 08:15:24 PM 40.2625 -96.0367 252° West 416 479 36,000  Level Minneapolis Center
Wed 08:16:26 PM 40.2197 -96.2117 252° West 419 482 36,000  Level Minneapolis Center
Wed 08:17:28 PM 40.1831 -96.3575 252° West 420 483 36,000  Level Minneapolis Center
Wed 08:18:30 PM 40.1478 -96.5042 253° West 422 486 36,000  Level Minneapolis Center
Wed 08:19:32 PM 40.1108 -96.6486 252° West 421 484 36,000  Level Minneapolis Center
Wed 08:20:34 PM 40.0736 -96.7950 252° West 422 486 36,000  Level Minneapolis Center
Wed 08:21:36 PM 40.0375 -96.9392 252° West 419 482 36,000  Level Minneapolis Center
Wed 08:22:38 PM 39.9931 -97.1139 252° West 421 484 36,000  Level Minneapolis Center
Wed 08:23:41 PM 39.9550 -97.2592 251° West 423 487 36,000  Level Minneapolis Center
Wed 08:24:43 PM 39.9200 -97.3936 251° West 424 488 36,000  Level Minneapolis Center
Wed 08:25:45 PM 39.8825 -97.5381 251° West 422 486 36,000  Level Minneapolis Center
Wed 08:26:47 PM 39.8383 -97.7108 252° West 419 482 36,000  Level Minneapolis Center
Wed 08:27:49 PM 39.8000 -97.8561 251° West 421 484 36,000  Level Minneapolis Center
Wed 08:28:51 PM 39.7619 -98.0000 251° West 421 484 36,000  Level Minneapolis Center
Wed 08:30:05 PM 39.7236 -98.1422 251° West 419 482 36,000  Level Minneapolis Center
Wed 08:31:08 PM 39.6769 -98.3133 251° West 418 481 36,000  Level Minneapolis Center
Wed 08:32:10 PM 39.6383 -98.4575 251° West 421 484 36,000  Level Minneapolis Center
Wed 08:33:12 PM 39.5917 -98.6303 251° West 422 486 36,000  Level Minneapolis Center
Wed 08:34:14 PM 39.5525 -98.7744 251° West 423 487 36,000  Level Minneapolis Center
Wed 08:35:16 PM 39.5133 -98.9172 250° West 422 486 36,000  Level Minneapolis Center
Wed 08:36:18 PM 39.4739 -99.0603 250° West 421 484 36,000  Level Minneapolis Center
Wed 08:37:20 PM 39.4347 -99.2017 250° West 419 482 36,000  Level Minneapolis Center
Wed 08:38:22 PM 39.3958 -99.3433 250° West 418 481 36,000  Level Minneapolis Center
Wed 08:39:24 PM 39.3553 -99.4839 250° West 417 480 36,000  Level Minneapolis Center
Wed 08:40:26 PM 39.3072 -99.6544 250° West 419 482 36,000  Level Minneapolis Center
Wed 08:41:28 PM 39.2683 -99.7967 251° West 419 482 36,000  Level Minneapolis Center
Wed 08:42:30 PM 39.2289 -99.9378 250° West 419 482 36,000  Level Minneapolis Center
Wed 08:43:48 PM 39.1756 -100.1156 249° West 416 479 36,000  Level Denver Center
Wed 08:44:50 PM 39.1356 -100.2511 249° West 419 482 36,000  Level Denver Center
Wed 08:45:52 PM 39.1039 -100.4167 256° West 428 493 36,000  Level Denver Center
Wed 08:47:06 PM 39.0872 -100.5597 262° West 424 488 36,000  Level Denver Center
Wed 08:48:09 PM 39.0658 -100.7497 262° West 421 484 36,000  Level Denver Center
Wed 08:49:11 PM 39.0472 -100.9158 262° West 420 483 36,000  Level Denver Center
Wed 08:50:25 PM 39.0319 -101.0631 262° West 427 491 36,000  Level Denver Center
Wed 08:51:27 PM 39.0122 -101.2517 262° West 423 487 36,000  Level Denver Center
Wed 08:52:29 PM 38.9992 -101.3936 263° West 420 483 36,000  Level Denver Center
Wed 08:53:31 PM 38.9844 -101.5583 263° West 417 480 36,000  Level Denver Center
Wed 08:54:33 PM 38.9706 -101.6986 263° West 415 478 36,000  Level Denver Center
Wed 08:55:35 PM 38.9589 -101.8414 264° West 417 480 36,000  Level Denver Center
Wed 08:56:38 PM 38.9444 -102.0067 264° West 418 481 36,000  Level Denver Center
Wed 08:58:00 PM 38.8864 -102.1894 257° West  Level Estimated
Wed 08:58:42 PM 38.9150 -102.3131 257° West 417 480 36,000  Level Denver Center
Wed 08:59:44 PM 38.8686 -102.4681 249° West 418 481 36,000  Level Denver Center
Wed 09:00:46 PM 38.8133 -102.5950 241° Southwest 422 486 36,000  Level Denver Center
Wed 09:01:48 PM 38.7506 -102.7392 241° Southwest 421 484 36,000  Level Denver Center
Wed 09:02:50 PM 38.6989 -102.8594 241° Southwest 416 479 36,000  Level Denver Center
Wed 09:03:52 PM 38.6425 -102.9867 240° Southwest 413 475 36,000  Level Denver Center
Wed 09:04:54 PM 38.5767 -103.1400 241° Southwest 410 472 36,000  Level Denver Center
Wed 09:05:56 PM 38.5189 -103.2686 240° Southwest 412 474 36,000  Level Denver Center
Wed 09:07:11 PM 38.4547 -103.4122 240° Southwest 415 478 36,000  Level Denver Center
Wed 09:08:13 PM 38.3922 -103.5542 241° Southwest 415 478 36,000  Level Denver Center
Wed 09:09:15 PM 38.3372 -103.6786 241° Southwest 420 483 36,000  Level Denver Center
Wed 09:10:17 PM 38.2722 -103.8231 240° Southwest 421 484 36,000  Level Denver Center
Wed 09:11:19 PM 38.2161 -103.9483 240° Southwest 427 491 36,000  Level Denver Center
Wed 09:12:21 PM 38.1522 -104.0925 241° Southwest 422 486 36,000  Level Denver Center
Wed 09:13:23 PM 38.0961 -104.2139 240° Southwest 421 484 36,000  Level Denver Center
Wed 09:14:25 PM 38.0311 -104.3569 240° Southwest 422 486 36,000  Level Denver Center
Wed 09:15:27 PM 37.9761 -104.4769 240° Southwest 416 479 36,000  Level Denver Center
Wed 09:16:29 PM 37.9122 -104.6161 240° Southwest 412 474 36,000  Level Denver Center
Wed 09:17:31 PM 37.8569 -104.7350 240° Southwest 412 474 36,000  Level Denver Center
Wed 09:18:33 PM 37.7925 -104.8750 240° Southwest 413 475 36,000  Level Denver Center
Wed 09:19:35 PM 37.7364 -104.9947 239° Southwest 414 476 36,000  Level Denver Center
Wed 09:20:37 PM 37.6703 -105.1364 240° Southwest 420 483 36,000  Level Denver Center
Wed 09:21:39 PM 37.6125 -105.2575 239° Southwest 422 486 36,000  Level Denver Center
Wed 09:22:41 PM 37.5472 -105.3978 240° Southwest 417 480 36,000  Level Denver Center
Wed 09:23:43 PM 37.4831 -105.5294 238° Southwest 424 488 36,000  Level Denver Center
Wed 09:24:45 PM 37.4278 -105.6500 240° Southwest 417 480 36,000  Level Denver Center
Wed 09:25:47 PM 37.3611 -105.7875 239° Southwest 412 474 36,000  Level Denver Center
Wed 09:26:49 PM 37.3131 -105.9094 244° Southwest 408 470 36,000  Level Denver Center
Wed 09:27:52 PM 37.2633 -106.0547 247° West 406 467 36,000  Level Denver Center
Wed 09:28:54 PM 37.2178 -106.1808 246° West 412 474 36,000  Level Denver Center
Wed 09:29:56 PM 37.1656 -106.3294 246° West 417 480 36,000  Level Denver Center
Wed 09:31:10 PM 37.1164 -106.4558 244° Southwest 421 484 36,000  Level Denver Center
Wed 09:32:12 PM 37.0569 -106.6253 246° West 416 479 36,000  Level Denver Center
Wed 09:33:14 PM 37.0103 -106.7508 245° Southwest 415 478 36,000  Level Denver Center
Wed 09:34:16 PM 36.9561 -106.8944 245° Southwest 409 471 36,000  Level Denver Center
Wed 09:35:18 PM 36.9114 -107.0175 246° West 407 468 36,000  Level Denver Center
Wed 09:36:20 PM 36.8583 -107.1597 245° Southwest 405 466 36,000  Level Denver Center
Wed 09:37:22 PM 36.8128 -107.2822 245° Southwest 408 470 36,000  Level Denver Center
Wed 09:38:24 PM 36.7594 -107.4242 245° Southwest 406 467 36,000  Level Denver Center
Wed 09:39:27 PM 36.7133 -107.5461 245° Southwest 406 467 36,000  Level Denver Center
Wed 09:40:29 PM 36.6600 -107.6886 245° Southwest 407 468 36,000  Level Denver Center
Wed 09:41:31 PM 36.6139 -107.8094 245° Southwest 406 467 36,000  Level Denver Center
Wed 09:42:33 PM 36.5608 -107.9506 245° Southwest 404 465 36,000  Level Denver Center
Wed 09:43:35 PM 36.5150 -108.0714 245° Southwest 404 465 36,000  Level Denver Center
Wed 09:44:37 PM 36.4614 -108.2117 245° Southwest 403 464 36,000  Level Denver Center
Wed 09:45:39 PM 36.4144 -108.3319 244° Southwest 405 466 36,000  Level Denver Center
Wed 09:46:41 PM 36.3683 -108.4536 245° Southwest 406 467 36,000  Level Denver Center
Wed 09:47:43 PM 36.3147 -108.5914 244° Southwest 401 461 36,000  Level Denver Center
Wed 09:48:45 PM 36.2686 -108.7083 244° Southwest 398 458 36,000  Level Denver Center
Wed 09:49:47 PM 36.2167 -108.8461 245° Southwest 399 459 36,000  Level Denver Center
Wed 09:50:49 PM 36.1600 -108.9861 243° Southwest 412 474 36,000  Level Denver Center
Wed 09:52:04 PM 36.0956 -109.1453 243° Southwest 411 473 36,000  Level Denver Center
Wed 09:53:06 PM 36.0478 -109.2639 244° Southwest 406 467 36,000  Level Denver Center
Wed 09:54:08 PM 35.9994 -109.3839 244° Southwest 408 470 36,000  Level Denver Center
Wed 09:55:10 PM 35.9436 -109.5228 244° Southwest 405 466 36,000  Level Denver Center
Wed 09:56:12 PM 35.8969 -109.6425 244° Southwest 406 467 36,000  Level Denver Center
Wed 09:57:14 PM 35.8400 -109.7794 243° Southwest 403 464 36,000  Level Denver Center
Wed 09:58:16 PM 35.7917 -109.8981 243° Southwest 403 464 36,000  Level Denver Center
Wed 09:59:18 PM 35.7358 -110.0369 244° Southwest 404 465 36,000  Level Denver Center
Wed 10:00:22 PM 35.6831 -110.1656 243° Southwest 406 467 36,000  Level Denver Center
Wed 10:01:24 PM 35.6328 -110.2894 243° Southwest 406 467 36,000  Level Denver Center
Wed 10:02:26 PM 35.5728 -110.4319 243° Southwest 406 467 36,000  Level Denver Center
Wed 10:03:28 PM 35.5331 -110.5322 244° Southwest 408 470 36,000  Level Denver Center
Wed 10:04:33 PM 35.4711 -110.6772 242° Southwest 408 470 36,000  Level Los Angeles Center
Wed 10:05:35 PM 35.4211 -110.7994 243° Southwest 405 466 36,000  Level Los Angeles Center
Wed 10:06:36 PM 35.3703 -110.9217 243° Southwest 405 466 36,000  Level Los Angeles Center
Wed 10:07:38 PM 35.3081 -111.0703 243° Southwest 406 467 36,000  Level Los Angeles Center
Wed 10:08:40 PM 35.2556 -111.1911 242° Southwest 403 464 36,000  Level Los Angeles Center
Wed 10:09:41 PM 35.2050 -111.3147 243° Southwest 406 467 36,000  Level Los Angeles Center
Wed 10:10:43 PM 35.1539 -111.4361 243° Southwest 403 464 36,000  Level Los Angeles Center
Wed 10:11:47 PM 35.1011 -111.5581 242° Southwest 407 468 36,000  Level Albuquerque Center
Wed 10:12:49 PM 35.0386 -111.7042 242° Southwest 406 467 36,000  Level Albuquerque Center
Wed 10:13:50 PM 34.9856 -111.8261 242° Southwest 412 474 36,000  Level Albuquerque Center
Wed 10:14:51 PM 34.9333 -111.9506 243° Southwest 413 475 36,000  Level Albuquerque Center
Wed 10:15:53 PM 34.8797 -112.0739 242° Southwest 413 475 36,000  Level Albuquerque Center
Wed 10:17:55 PM 34.7733 -112.3186 242° Southwest 411 473 36,000  Level Albuquerque Center
Wed 10:18:56 PM 34.7203 -112.4397 242° Southwest 409 471 36,000  Level Albuquerque Center
Wed 10:19:58 PM 34.6800 -112.5689 249° West 410 472 36,000  Level Albuquerque Center
Wed 10:20:59 PM 34.6442 -112.6997 252° West 411 473 36,000  Level Albuquerque Center
Wed 10:22:00 PM 34.6028 -112.8575 252° West 410 472 36,000  Level Albuquerque Center
Wed 10:23:02 PM 34.5675 -112.9883 252° West 410 472 36,000  Level Albuquerque Center
Wed 10:24:03 PM 34.5328 -113.1194 252° West 410 472 36,000  Level Albuquerque Center
Wed 10:25:04 PM 34.4975 -113.2514 252° West 411 473 36,000  Level Albuquerque Center
Wed 10:26:06 PM 34.4619 -113.3825 252° West 411 473 36,000  Level Albuquerque Center
Wed 10:27:07 PM 34.4264 -113.5147 252° West 413 475 36,000 -393 Level Albuquerque Center
Wed 10:28:08 PM 34.3894 -113.6464 251° West 411 473 35,200 -878 Descending Albuquerque Center
Wed 10:29:10 PM 34.3531 -113.7781 252° West 412 474 34,200 -585 Descending Albuquerque Center
Wed 10:30:11 PM 34.3086 -113.9358 251° West 413 475 34,000 -98 Descending Albuquerque Center
Wed 10:31:12 PM 34.2731 -114.0675 252° West 412 474 34,000 -341 Level Albuquerque Center
Wed 10:32:14 PM 34.2383 -114.1964 252° West 408 470 33,300 -780 Descending Albuquerque Center
Wed 10:33:15 PM 34.2011 -114.3261 251° West 407 468 32,400 -934 Descending Albuquerque Center
Wed 10:34:16 PM 34.1653 -114.4567 252° West 409 471 31,400 -958 Descending Albuquerque Center
Wed 10:35:39 PM 34.1197 -114.6217 252° West 410 472 30,100 -579 Descending Los Angeles Center
Wed 10:36:41 PM 34.0636 -114.7728 246° West 415 478 30,000 -387 Descending Los Angeles Center
Wed 10:37:43 PM 34.0103 -114.8922 242° Southwest 407 468 29,300 -829 Descending Los Angeles Center
Wed 10:38:44 PM 33.9583 -115.0089 242° Southwest 397 457 28,300 -976 Descending Los Angeles Center
Wed 10:39:46 PM 33.9067 -115.1256 242° Southwest 398 458 27,300 -968 Descending Los Angeles Center
Wed 10:40:48 PM 33.8547 -115.2431 242° Southwest 399 459 26,300 -968 Descending Los Angeles Center
Wed 10:41:50 PM 33.8033 -115.3575 242° Southwest 393 452 25,300 -1,016 Descending Los Angeles Center
Wed 10:42:52 PM 33.7414 -115.4939 241° Southwest 387 445 24,200 -677 Descending Los Angeles Center
Wed 10:43:54 PM 33.6928 -115.6044 242° Southwest 378 435 23,900 -98 Descending Los Angeles Center
Wed 10:44:55 PM 33.6419 -115.7158 241° Southwest 381 438 24,000  Climbing Los Angeles Center
Wed 10:45:57 PM 33.5661 -115.8122 227° Southwest 403 464 23,900  Descending Los Angeles Center
Wed 10:46:59 PM 33.4819 -115.9075 223° Southwest 416 479 24,000 -823 Climbing Los Angeles Center
Wed 10:48:01 PM 33.3975 -116.0025 223° Southwest 418 481 22,200 -2,129 Descending Los Angeles Center
Wed 10:49:03 PM 33.3003 -116.1128 223° Southwest 404 465 19,600 -2,390 Descending Los Angeles Center
Wed 10:50:04 PM 33.2206 -116.2019 223° Southwest 396 456 17,300 -2,000 Descending Los Angeles Center
Wed 10:51:06 PM 33.1444 -116.2878 223° Southwest 383 441 15,500 -1,742 Descending Los Angeles Center
Wed 10:52:08 PM 33.0694 -116.3725 223° Southwest 376 433 13,700 -1,887 Descending Los Angeles Center
Wed 10:53:10 PM 32.9950 -116.4569 224° Southwest 357 411 11,600 -1,742 Descending Los Angeles Center
Wed 10:54:12 PM 32.9286 -116.5594 232° Southwest 356 410 10,100 -927 Descending Los Angeles Center
Wed 10:55:13 PM 32.8764 -116.6353 231° Southwest 311 358 9,700 -976 Descending Los Angeles Center
Wed 10:56:15 PM 32.8278 -116.7061 231° Southwest 284 327 8,100 -1,548 Descending Los Angeles Center
Wed 10:57:17 PM 32.7794 -116.7772 231° Southwest 278 320 6,500 -1,500 Descending Los Angeles Center
Wed 10:58:19 PM 32.7319 -116.8478 231° Southwest 277 319 5,000 -823 Descending Los Angeles Center
Wed 10:59:21 PM 32.6842 -116.9164 230° Southwest 272 313 4,800 -732 Descending Los Angeles Center
Wed 11:00:22 PM 32.6883 -117.0047 273° West 231 266 3,500 -1,279 Descending Los Angeles Center

Login

Don't have an account? Register now (free) for customized features, flight alerts, and more!